Time;durP1;ratioP1;P1;durP2;ratioP2;P2;SDS_P1;SDS_P2;PMS_P1;PMS_P2;Temp;Humidity;BMP_temperature;BMP_pressure;BME280_temperature;BME280_humidity;BME280_pressure;Samples;Min_cycle;Max_cycle;Signal;HPM_P1;HPM_P2
2023/06/30 00:00:36;;;;;;;7.53;6.93;;;17.10;99.90;;;;;;2614478;39;20629;-70
2023/06/30 00:06:25;;;;;;;7.40;7.00;;;16.90;99.90;;;;;;2613795;54;20403;-71
2023/06/30 00:12:13;;;;;;;7.40;7.00;;;16.80;99.90;;;;;;2614618;54;20406;-70
2023/06/30 00:18:01;;;;;;;7.57;7.17;;;16.80;99.90;;;;;;2614673;54;20264;-71
2023/06/30 00:20:46;;;;;;;8.30;7.53;;;16.80;99.90;;;;;;2613799;54;20383;-71
2023/06/30 00:23:13;;;;;;;7.30;6.90;;;16.80;99.90;;;;;;2612666;49;20250;-71
2023/06/30 00:29:01;;;;;;;8.37;7.70;;;16.80;99.90;;;;;;2613103;54;20355;-71
2023/06/30 00:34:49;;;;;;;7.47;4.80;;;16.70;99.90;;;;;;2614231;54;20175;-71
2023/06/30 00:40:37;;;;;;;3.40;3.20;;;16.40;99.90;;;;;;2612294;54;20151;-71
2023/06/30 00:49:47;;;;;;;4.63;3.50;;;16.00;99.90;;;;;;2613022;54;20403;-70
2023/06/30 00:55:35;;;;;;;6.43;4.00;;;15.80;99.90;;;;;;2614073;54;20415;-69
2023/06/30 01:14:36;;;;;;;10.70;5.60;;;15.60;99.90;;;;;;2614325;54;21037;-72
2023/06/30 01:20:29;;;;;;;7.13;5.80;;;15.60;99.90;;;;;;2613271;54;20973;-73
2023/06/30 01:26:19;;;;;;;9.20;7.10;;;15.50;99.90;;;;;;2614509;54;20424;-72
2023/06/30 01:32:07;;;;;;;7.80;6.60;;;15.50;99.90;;;;;;2613943;54;20367;-73
2023/06/30 01:37:56;;;;;;;7.03;6.33;;;15.50;99.90;;;;;;2614652;54;20488;-73
2023/06/30 01:43:45;;;;;;;7.73;6.70;;;15.50;99.90;;;;;;2614470;54;20460;-74
2023/06/30 01:49:34;;;;;;;10.80;7.10;;;15.50;99.90;;;;;;2614174;54;20954;-72
2023/06/30 01:55:21;;;;;;;7.70;6.77;;;15.50;99.90;;;;;;2614554;39;20821;-73
2023/06/30 02:01:09;;;;;;;7.13;6.43;;;15.50;99.90;;;;;;2612597;54;20439;-73
2023/06/30 02:06:57;;;;;;;12.07;6.17;;;15.40;99.90;;;;;;2614632;54;20110;-73
2023/06/30 02:12:45;;;;;;;7.77;6.97;;;15.40;99.90;;;;;;2614876;39;20563;-73
2023/06/30 02:18:32;;;;;;;8.87;8.03;;;15.30;99.90;;;;;;2614049;54;20201;-73
2023/06/30 02:24:20;;;;;;;13.57;9.30;;;15.30;99.90;;;;;;2614734;54;21119;-73
2023/06/30 02:30:08;;;;;;;13.07;8.10;;;15.30;99.90;;;;;;2613969;54;20256;-74
2023/06/30 02:35:56;;;;;;;13.47;9.63;;;15.40;99.90;;;;;;2614509;54;20419;-74
2023/06/30 02:41:44;;;;;;;12.50;10.43;;;15.30;99.90;;;;;;2614482;54;20122;-74
2023/06/30 02:47:31;;;;;;;12.77;9.13;;;15.30;99.90;;;;;;2614010;46;20252;-68
2023/06/30 02:53:19;;;;;;;11.50;8.80;;;15.40;99.90;;;;;;2613737;54;20231;-67
2023/06/30 02:59:06;;;;;;;14.63;9.00;;;15.30;99.90;;;;;;2613930;54;20122;-68
2023/06/30 03:04:55;;;;;;;14.93;9.03;;;15.30;99.90;;;;;;2614466;54;20122;-67
2023/06/30 03:10:43;;;;;;;16.70;8.67;;;15.30;99.90;;;;;;2614545;31;20990;-68
2023/06/30 03:16:31;;;;;;;12.80;7.77;;;15.30;99.90;;;;;;2613476;54;20131;-67
2023/06/30 03:22:19;;;;;;;14.37;8.83;;;15.30;99.90;;;;;;2614160;54;20459;-68
2023/06/30 03:28:07;;;;;;;16.57;9.73;;;15.20;99.90;;;;;;2614899;39;20548;-68
2023/06/30 03:33:55;;;;;;;15.43;11.03;;;15.20;99.90;;;;;;2613309;54;20143;-67
2023/06/30 03:39:43;;;;;;;22.13;7.80;;;15.10;99.90;;;;;;2612434;54;20134;-68
2023/06/30 03:55:54;;;;;;;12.60;8.90;;;15.10;99.90;;;;;;2611026;54;20682;-68
2023/06/30 03:58:56;;;;;;;11.20;9.77;;;15.00;99.90;;;;;;2611759;39;20828;-67
2023/06/30 04:01:22;;;;;;;11.10;8.80;;;15.10;99.90;;;;;;2610675;47;20170;-68
2023/06/30 04:07:09;;;;;;;12.57;8.30;;;15.00;99.90;;;;;;2613033;54;20195;-66
2023/06/30 04:10:30;;;;;;;12.40;9.03;;;15.00;99.90;;;;;;2611147;47;20440;-67
2023/06/30 04:16:17;;;;;;;15.63;9.43;;;15.00;99.90;;;;;;2612266;54;20392;-68
2023/06/30 04:22:05;;;;;;;12.23;9.70;;;15.00;99.90;;;;;;2612085;54;20179;-67
2023/06/30 04:27:52;;;;;;;11.90;8.73;;;15.00;99.90;;;;;;2613265;54;21088;-67
2023/06/30 04:33:40;;;;;;;14.47;9.17;;;15.00;99.90;;;;;;2613760;54;20147;-67
2023/06/30 04:39:27;;;;;;;16.07;8.40;;;14.90;99.90;;;;;;2611932;54;20139;-68
2023/06/30 04:45:15;;;;;;;11.83;10.10;;;14.90;99.90;;;;;;2613508;54;20186;-68
2023/06/30 04:51:03;;;;;;;13.23;9.67;;;14.90;99.90;;;;;;2612847;54;20121;-68
2023/06/30 04:56:51;;;;;;;12.23;8.40;;;15.00;99.90;;;;;;2613490;39;20558;-67
2023/06/30 05:02:38;;;;;;;9.03;8.20;;;15.00;99.90;;;;;;2613551;54;20853;-67
2023/06/30 05:08:26;;;;;;;15.90;9.57;;;15.10;99.90;;;;;;2614386;54;20251;-69
2023/06/30 05:14:14;;;;;;;12.43;8.87;;;15.10;99.90;;;;;;2610434;54;20130;-66
2023/06/30 05:20:05;;;;;;;9.20;7.90;;;15.10;99.90;;;;;;2612467;54;20234;-65
2023/06/30 05:25:52;;;;;;;15.47;8.63;;;15.60;99.90;;;;;;2613703;54;20404;-66
2023/06/30 05:31:40;;;;;;;8.80;7.63;;;15.80;99.90;;;;;;2612249;54;20399;-65
2023/06/30 05:37:28;;;;;;;7.70;7.00;;;15.70;99.90;;;;;;2613635;54;20649;-70
2023/06/30 05:43:17;;;;;;;9.90;9.10;;;15.80;99.90;;;;;;2613364;54;20131;-67
2023/06/30 05:52:27;;;;;;;11.27;9.87;;;16.00;99.90;;;;;;2613247;54;20399;-67
2023/06/30 05:58:15;;;;;;;8.73;8.13;;;15.80;99.90;;;;;;2611631;54;20142;-69
2023/06/30 06:04:03;;;;;;;12.73;8.80;;;15.90;99.90;;;;;;2607616;54;20143;-67
2023/06/30 06:09:51;;;;;;;8.60;8.00;;;15.90;99.90;;;;;;2612746;54;20652;-68
2023/06/30 06:15:39;;;;;;;9.97;9.03;;;16.10;99.90;;;;;;2613814;39;20520;-68
2023/06/30 06:21:27;;;;;;;9.60;8.60;;;16.20;99.90;;;;;;2612969;54;20174;-69
2023/06/30 06:27:15;;;;;;;14.93;8.10;;;16.30;99.90;;;;;;2611463;54;20403;-68
2023/06/30 06:33:03;;;;;;;8.23;7.00;;;16.40;99.90;;;;;;2613048;54;20125;-68
2023/06/30 06:38:50;;;;;;;7.30;6.23;;;17.20;99.90;;;;;;2613488;54;20126;-68
2023/06/30 06:44:38;;;;;;;8.90;6.93;;;17.00;99.90;;;;;;2613836;54;20644;-68
2023/06/30 06:47:48;;;;;;;12.43;6.60;;;16.90;99.90;;;;;;2610119;47;20439;-68
2023/06/30 06:50:14;;;;;;;6.50;6.00;;;17.30;99.90;;;;;;2610193;54;20158;-68
2023/06/30 06:56:03;;;;;;;8.27;7.67;;;17.70;99.90;;;;;;2612693;54;20130;-68
2023/06/30 07:01:51;;;;;;;6.33;5.30;;;18.20;99.90;;;;;;2612333;54;20412;-68
2023/06/30 07:07:39;;;;;;;7.60;7.10;;;18.10;99.90;;;;;;2614244;54;20641;-68
2023/06/30 07:13:26;;;;;;;8.17;7.60;;;18.00;99.90;;;;;;2612026;39;20264;-68
2023/06/30 07:19:14;;;;;;;9.40;8.40;;;18.40;99.90;;;;;;2612840;54;20138;-69
2023/06/30 07:25:03;;;;;;;9.00;7.70;;;18.00;99.90;;;;;;2614047;54;20242;-68
2023/06/30 07:30:52;;;;;;;8.50;7.90;;;18.30;99.90;;;;;;2614441;39;20718;-68
2023/06/30 07:36:41;;;;;;;8.70;7.90;;;18.90;99.90;;;;;;2613636;54;20403;-68
2023/06/30 07:42:28;;;;;;;8.90;8.40;;;19.50;99.90;;;;;;2614488;54;20398;-69
2023/06/30 07:52:15;;;;;;;9.63;9.13;;;19.30;99.90;;;;;;2614303;54;20954;-69
2023/06/30 07:58:03;;;;;;;10.27;9.77;;;19.70;99.90;;;;;;2613317;54;20399;-69
2023/06/30 08:03:50;;;;;;;12.40;11.20;;;20.30;99.90;;;;;;2615015;39;20549;-69
2023/06/30 08:09:38;;;;;;;10.87;10.10;;;20.60;99.90;;;;;;2614063;54;20939;-69
2023/06/30 08:15:26;;;;;;;11.97;11.10;;;20.10;99.90;;;;;;2614591;54;20383;-69
2023/06/30 08:21:14;;;;;;;10.70;9.93;;;19.50;99.90;;;;;;2615063;54;20138;-69
2023/06/30 08:27:02;;;;;;;10.90;10.30;;;21.10;99.90;;;;;;2612515;54;20150;-70
2023/06/30 08:32:50;;;;;;;11.70;11.10;;;20.40;99.90;;;;;;2614707;39;20728;-69
2023/06/30 08:38:38;;;;;;;12.53;11.63;;;20.50;99.90;;;;;;2612272;54;20370;-69
2023/06/30 08:44:26;;;;;;;11.70;11.20;;;21.20;99.90;;;;;;2615297;54;20676;-70
2023/06/30 08:50:35;;;;;;;12.20;11.27;;;20.80;99.90;;;;;;2614209;39;20587;-70
2023/06/30 08:56:25;;;;;;;12.33;11.73;;;20.40;99.90;;;;;;2611235;54;20403;-69
2023/06/30 09:02:12;;;;;;;13.87;13.10;;;20.80;99.90;;;;;;2612178;54;20499;-70
2023/06/30 09:08:00;;;;;;;14.60;13.90;;;22.10;99.90;;;;;;2612555;54;20387;-69
2023/06/30 09:13:48;;;;;;;14.10;13.40;;;21.90;99.90;;;;;;2613649;54;20405;-69
2023/06/30 09:19:35;;;;;;;13.77;13.17;;;22.40;99.90;;;;;;2607540;54;20394;-69
2023/06/30 09:25:26;;;;;;;14.60;13.60;;;21.00;95.30;;;;;;2614193;54;20154;-70
2023/06/30 09:31:14;;;;;;;15.10;14.30;;;20.70;92.00;;;;;;2615126;54;20406;-69
2023/06/30 09:37:02;;;;;;;15.23;14.20;;;22.10;91.50;;;;;;2614054;54;20400;-69
2023/06/30 09:42:55;;;;;;;55.50;51.50;;;21.90;91.10;;;;;;2614659;54;20126;-68
2023/06/30 09:52:24;;;;;;;13.00;12.50;;;23.00;68.20;;;;;;2610375;54;20396;-69
2023/06/30 09:58:11;;;;;;;14.67;13.70;;;22.90;66.20;;;;;;2610482;54;20983;-70
2023/06/30 10:03:59;;;;;;;14.43;13.50;;;23.50;61.50;;;;;;2609801;54;20123;-69
2023/06/30 10:09:48;;;;;;;14.50;13.67;;;23.00;57.60;;;;;;2610855;54;20139;-69
2023/06/30 10:15:36;;;;;;;14.53;13.83;;;22.30;57.30;;;;;;2613778;54;20371;-69
2023/06/30 10:21:23;;;;;;;14.03;13.43;;;22.10;48.10;;;;;;2611727;54;20375;-69
2023/06/30 10:27:12;;;;;;;13.83;13.23;;;23.50;50.80;;;;;;2609998;54;20254;-69
2023/06/30 10:33:01;;;;;;;14.93;13.90;;;21.90;52.80;;;;;;2607180;39;20929;-69
2023/06/30 10:38:48;;;;;;;14.13;13.43;;;23.90;49.90;;;;;;2610826;54;20266;-69
2023/06/30 10:44:38;;;;;;;13.20;12.70;;;21.80;47.90;;;;;;2610322;39;20800;-70
2023/06/30 10:47:48;;;;;;;14.63;13.63;;;22.20;46.60;;;;;;2612170;54;21153;-69
2023/06/30 10:50:14;;;;;;;14.77;14.00;;;22.00;48.70;;;;;;2610646;47;20435;-70
2023/06/30 10:56:03;;;;;;;13.97;13.27;;;23.40;43.90;;;;;;2611988;39;20740;-69
2023/06/30 11:02:11;;;;;;;14.77;13.77;;;22.70;41.40;;;;;;2610492;54;20423;-69
2023/06/30 11:08:02;;;;;;;14.77;13.87;;;23.20;41.80;;;;;;2608876;39;20484;-69
2023/06/30 11:20:32;;;;;;;14.63;13.83;;;22.90;41.50;;;;;;2610929;54;20350;-69
2023/06/30 11:26:19;;;;;;;14.10;13.30;;;24.80;32.30;;;;;;2613118;54;20355;-70
2023/06/30 11:32:08;;;;;;;15.57;14.13;;;23.00;31.50;;;;;;2613914;54;20125;-68
2023/06/30 11:37:55;;;;;;;13.60;13.00;;;22.90;35.90;;;;;;2611964;54;20364;-69
2023/06/30 11:43:47;;;;;;;14.30;13.50;;;22.20;35.90;;;;;;2610556;54;20750;-69
2023/06/30 11:50:13;;;;;;;14.03;13.43;;;22.90;35.10;;;;;;2612442;54;20555;-70
2023/06/30 11:52:51;;;;;;;14.90;14.17;;;22.50;32.50;;;;;;2613085;54;20973;-70
2023/06/30 12:04:58;;;;;;;14.37;13.57;;;23.10;33.00;;;;;;2611669;54;20399;-70
2023/06/30 12:10:47;;;;;;;14.00;13.40;;;24.40;27.30;;;;;;2613283;54;20178;-69
2023/06/30 12:16:39;;;;;;;14.70;13.80;;;24.20;33.40;;;;;;2611865;54;20354;-70
2023/06/30 12:22:27;;;;;;;14.77;13.80;;;23.10;32.00;;;;;;2613316;54;20416;-70
2023/06/30 12:28:16;;;;;;;15.20;14.40;;;22.20;30.10;;;;;;2613519;54;20425;-69
2023/06/30 12:34:04;;;;;;;15.13;14.33;;;23.70;34.70;;;;;;2613559;54;20395;-69
2023/06/30 12:39:52;;;;;;;15.27;14.50;;;24.30;24.80;;;;;;2613283;54;20114;-69
2023/06/30 12:45:39;;;;;;;15.60;14.50;;;23.90;23.90;;;;;;2613386;54;20123;-69
2023/06/30 12:48:20;;;;;;;14.83;14.03;;;24.30;24.50;;;;;;2613040;54;21292;-69
2023/06/30 12:50:46;;;;;;;14.37;13.70;;;24.80;20.20;;;;;;2613905;39;20547;-70
2023/06/30 12:56:33;;;;;;;14.80;14.07;;;22.20;28.90;;;;;;2612926;54;20127;-71
2023/06/30 13:02:21;;;;;;;15.17;14.37;;;24.50;31.50;;;;;;2612575;39;20575;-69
2023/06/30 13:08:09;;;;;;;13.90;13.30;;;24.50;23.90;;;;;;2612193;54;20126;-70
